createdAt,value
2022-08-25T00:01:37.860Z,73.07
2022-08-25T00:04:10.281Z,72.86
2022-08-25T00:06:38.444Z,72.61
2022-08-25T00:09:05.728Z,72.63
2022-08-25T00:11:34.028Z,72.64
2022-08-25T00:14:04.900Z,73.09
2022-08-25T00:16:32.413Z,73.06
2022-08-25T00:19:03.189Z,72.57
2022-08-25T00:21:31.781Z,72.97
2022-08-25T00:23:59.679Z,73.46
2022-08-25T00:26:27.552Z,73.82
2022-08-25T00:28:54.256Z,73.70
2022-08-25T00:31:38.500Z,73.19
2022-08-25T00:34:11.601Z,73.04
2022-08-25T00:36:38.567Z,73.16
2022-08-25T00:39:07.353Z,73.09
2022-08-25T00:41:35.380Z,72.59
2022-08-25T00:44:05.232Z,72.41
2022-08-25T00:46:38.969Z,72.61
2022-08-25T00:49:14.689Z,72.83
2022-08-25T00:51:55.102Z,72.48
2022-08-25T00:54:29.925Z,72.54
2022-08-25T00:56:59.138Z,73.25
2022-08-25T00:59:26.873Z,73.31
2022-08-25T01:01:55.050Z,73.23
2022-08-25T01:04:22.124Z,73.31
2022-08-25T01:06:49.242Z,73.68
2022-08-25T01:09:16.675Z,73.51
2022-08-25T01:11:44.783Z,73.39
2022-08-25T01:14:15.960Z,74.02
2022-08-25T01:16:43.740Z,74.58
2022-08-25T01:19:15.499Z,75.46
2022-08-25T01:21:48.077Z,75.04
2022-08-25T01:24:21.216Z,75.83
2022-08-25T01:26:47.725Z,75.79
2022-08-25T01:29:25.265Z,75.17
2022-08-25T01:31:57.351Z,75.02
2022-08-25T01:34:26.496Z,74.83
2022-08-25T01:36:54.435Z,75.60
2022-08-25T01:39:20.924Z,75.62
2022-08-25T01:41:58.594Z,75.26
2022-08-25T01:44:25.833Z,75.22
2022-08-25T01:46:52.913Z,75.71
2022-08-25T01:49:19.264Z,75.64
2022-08-25T01:51:53.405Z,75.31
2022-08-25T01:54:20.298Z,75.50
2022-08-25T01:56:46.995Z,74.96
2022-08-25T01:59:23.953Z,75.33
2022-08-25T02:01:50.562Z,75.90
2022-08-25T02:04:17.035Z,76.04
2022-08-25T02:06:48.141Z,76.23
2022-08-25T02:09:16.777Z,75.70
2022-08-25T02:11:46.470Z,75.94
2022-08-25T02:14:14.032Z,75.96
2022-08-25T02:16:44.647Z,76.21
2022-08-25T02:19:12.020Z,76.69
2022-08-25T02:21:39.396Z,76.83
2022-08-25T02:24:06.938Z,76.99
2022-08-25T02:26:36.144Z,77.46
2022-08-25T02:29:04.031Z,77.41
2022-08-25T02:31:30.453Z,77.38
2022-08-25T02:33:57.207Z,77.27
2022-08-25T02:36:23.832Z,77.13
2022-08-25T02:38:50.721Z,77.13
2022-08-25T02:41:20.917Z,77.33
2022-08-25T02:43:48.568Z,77.08
2022-08-25T02:46:17.910Z,76.92
2022-08-25T02:48:45.131Z,76.89
2022-08-25T02:51:12.378Z,76.74
2022-08-25T02:53:40.504Z,76.79
2022-08-25T02:56:09.723Z,76.78
2022-08-25T02:58:37.253Z,76.93
2022-08-25T03:01:04.861Z,77.05
2022-08-25T03:03:31.466Z,77.16
2022-08-25T03:05:57.867Z,76.96
2022-08-25T03:08:25.171Z,77.46
2022-08-25T03:10:52.056Z,77.39
2022-08-25T03:13:18.681Z,77.19
2022-08-25T03:15:46.144Z,76.81
2022-08-25T03:18:15.864Z,76.68
2022-08-25T03:20:44.481Z,76.93
2022-08-25T03:23:11.280Z,76.35
2022-08-25T03:26:00.631Z,76.44
2022-08-25T03:28:31.130Z,76.00
2022-08-25T03:30:57.564Z,76.26
2022-08-25T03:33:23.942Z,76.38
2022-08-25T03:35:50.402Z,75.78
2022-08-25T03:38:16.958Z,75.51
2022-08-25T03:40:43.348Z,75.54
2022-08-25T03:43:09.699Z,75.02
2022-08-25T03:45:41.364Z,75.45
2022-08-25T03:48:07.890Z,75.62
2022-08-25T03:50:34.590Z,75.46
2022-08-25T03:53:00.977Z,75.60
2022-08-25T03:55:27.606Z,75.54
2022-08-25T03:57:54.641Z,75.39
2022-08-25T04:00:22.853Z,75.64
2022-08-25T04:02:49.553Z,75.82
2022-08-25T04:05:16.071Z,75.76
2022-08-25T04:07:42.463Z,75.85
2022-08-25T04:10:10.401Z,75.67
2022-08-25T04:12:37.622Z,75.32
2022-08-25T04:15:05.580Z,75.21
2022-08-25T04:17:32.329Z,75.42
2022-08-25T04:19:59.345Z,75.73
2022-08-25T04:22:25.799Z,75.26
2022-08-25T04:24:55.232Z,75.21
2022-08-25T04:27:21.575Z,75.53
2022-08-25T04:29:47.987Z,75.25
2022-08-25T04:32:14.443Z,75.17
2022-08-25T04:34:41.383Z,75.38
2022-08-25T04:37:07.882Z,75.26
2022-08-25T04:39:34.320Z,75.18
2022-08-25T04:42:01.450Z,74.71
2022-08-25T04:44:29.013Z,74.81
2022-08-25T04:46:55.535Z,74.68
2022-08-25T04:49:21.925Z,75.05
2022-08-25T04:51:48.303Z,75.46
2022-08-25T04:54:22.300Z,75.81
2022-08-25T04:56:50.352Z,76.05
2022-08-25T04:59:21.222Z,76.09
2022-08-25T05:01:50.110Z,75.96
2022-08-25T05:04:28.262Z,75.77
2022-08-25T05:06:56.677Z,75.96
2022-08-25T05:09:23.805Z,76.37
2022-08-25T05:11:51.921Z,76.37
2022-08-25T05:14:21.602Z,76.23
2022-08-25T05:16:52.052Z,75.97
2022-08-25T05:19:18.706Z,76.05
2022-08-25T05:21:45.061Z,75.99
2022-08-25T05:24:11.454Z,76.04
2022-08-25T05:26:38.327Z,75.99
2022-08-25T05:29:06.143Z,75.74
2022-08-25T05:31:36.334Z,75.28
2022-08-25T05:34:08.832Z,75.06
2022-08-25T05:36:35.761Z,75.01
2022-08-25T05:39:02.244Z,75.13
2022-08-25T05:41:30.611Z,74.47
2022-08-25T05:43:57.660Z,74.85
2022-08-25T05:46:24.628Z,74.26
2022-08-25T05:48:51.887Z,74.25
2022-08-25T05:51:21.495Z,73.26
2022-08-25T05:53:50.657Z,72.10
2022-08-25T05:56:18.313Z,70.88
2022-08-25T05:58:45.803Z,70.67
2022-08-25T06:01:44.937Z,67.63
2022-08-25T06:04:12.851Z,65.02
2022-08-25T06:06:39.635Z,62.95
2022-08-25T06:09:08.550Z,60.80
2022-08-25T06:11:36.166Z,60.91
2022-08-25T06:14:02.641Z,61.19
2022-08-25T06:16:29.178Z,62.30
2022-08-25T06:18:55.578Z,62.37
2022-08-25T06:21:22.003Z,62.57
2022-08-25T06:23:49.199Z,62.86
2022-08-25T06:26:21.297Z,63.41
2022-08-25T06:28:49.322Z,63.55
2022-08-25T06:31:15.796Z,63.19
2022-08-25T06:33:42.918Z,63.11
2022-08-25T06:36:09.677Z,64.12
2022-08-25T06:38:36.694Z,64.43
2022-08-25T06:41:05.517Z,63.52
2022-08-25T06:43:35.539Z,64.57
2022-08-25T06:46:14.359Z,65.14
2022-08-25T06:48:41.500Z,63.88
2022-08-25T06:51:10.220Z,64.10
2022-08-25T06:53:41.334Z,63.02
2022-08-25T06:56:08.338Z,62.32
2022-08-25T06:58:35.339Z,62.45
2022-08-25T07:01:20.024Z,61.20
2022-08-25T07:03:47.511Z,60.72
2022-08-25T07:06:14.870Z,60.82
2022-08-25T07:08:45.870Z,59.91
2022-08-25T07:11:16.319Z,59.31
2022-08-25T07:13:44.684Z,59.68
2022-08-25T07:16:11.369Z,58.66
2022-08-25T07:18:38.376Z,58.68
2022-08-25T07:21:05.720Z,58.00
2022-08-25T07:23:35.432Z,55.61
2022-08-25T07:26:36.307Z,56.22
2022-08-25T07:29:00.781Z,55.96
2022-08-25T07:31:29.482Z,54.54
2022-08-25T07:34:14.707Z,53.67
2022-08-25T07:36:43.061Z,53.98
2022-08-25T07:39:09.540Z,52.20
2022-08-25T07:41:37.807Z,52.67
2022-08-25T07:44:05.635Z,51.70
2022-08-25T07:46:32.688Z,52.72
2022-08-25T07:49:00.257Z,52.37
2022-08-25T07:53:53.967Z,52.49
2022-08-25T07:56:20.316Z,52.37
2022-08-25T07:58:47.672Z,52.99
2022-08-25T08:01:19.706Z,50.64
2022-08-25T08:03:50.058Z,49.48
2022-08-25T08:06:20.956Z,48.84
2022-08-25T08:08:49.509Z,49.07
2022-08-25T08:11:26.539Z,49.68
2022-08-25T08:13:55.268Z,49.55
2022-08-25T08:16:24.827Z,46.54
2022-08-25T08:18:51.746Z,46.60
2022-08-25T08:21:26.105Z,45.68
2022-08-25T08:23:58.951Z,46.40
2022-08-25T08:26:36.391Z,46.81
2022-08-25T08:29:08.794Z,44.91
2022-08-25T08:31:36.465Z,45.05
2022-08-25T08:34:03.715Z,45.41
2022-08-25T08:36:30.089Z,44.91
2022-08-25T08:38:56.440Z,46.03
2022-08-25T08:44:46.203Z,43.85
2022-08-25T08:47:40.018Z,43.99
2022-08-25T08:50:27.971Z,44.00
2022-08-25T08:53:15.696Z,42.69
2022-08-25T08:55:48.325Z,43.72
2022-08-25T08:58:28.620Z,41.79
2022-08-25T09:00:58.202Z,42.90
2022-08-25T09:03:31.791Z,40.62
2022-08-25T09:06:03.406Z,40.74
2022-08-25T09:08:33.437Z,41.36
2022-08-25T09:11:18.911Z,40.51
2022-08-25T09:14:18.415Z,40.39
2022-08-25T09:16:55.324Z,40.34
2022-08-25T09:19:28.861Z,41.70
2022-08-25T09:22:04.465Z,38.22
2022-08-25T09:25:08.834Z,39.38
2022-08-25T09:28:05.939Z,38.76
2022-08-25T09:30:58.021Z,38.04
2022-08-25T09:33:27.030Z,38.33
2022-08-25T09:35:55.066Z,37.75
2022-08-25T09:38:26.166Z,38.44
2022-08-25T09:40:57.288Z,39.87
2022-08-25T09:43:40.270Z,37.37
2022-08-25T09:46:10.438Z,35.80
2022-08-25T09:49:07.718Z,37.28
2022-08-25T09:51:43.073Z,35.38
2022-08-25T09:54:12.635Z,37.26
2022-08-25T09:56:52.717Z,36.30
2022-08-25T09:59:35.184Z,35.98
2022-08-25T10:02:05.873Z,34.98
2022-08-25T10:04:40.092Z,34.33
2022-08-25T10:07:25.325Z,34.86
2022-08-25T10:09:56.747Z,35.07
2022-08-25T10:12:31.105Z,34.31
2022-08-25T10:14:57.542Z,34.24
2022-08-25T10:17:29.980Z,33.87
2022-08-25T10:20:11.528Z,34.17
2022-08-25T10:22:40.661Z,34.47
2022-08-25T10:25:10.695Z,32.33
2022-08-25T10:27:58.453Z,32.54
2022-08-25T10:30:42.861Z,33.47
2022-08-25T10:33:30.946Z,31.45
2022-08-25T10:36:04.527Z,31.90
2022-08-25T10:38:47.554Z,31.90
2022-08-25T10:41:35.711Z,31.56
2022-08-25T10:44:46.521Z,31.89
2022-08-25T10:47:31.569Z,31.50
2022-08-25T10:50:23.491Z,29.47
2022-08-25T10:53:19.038Z,30.35
2022-08-25T10:55:55.178Z,31.38
2022-08-25T10:58:36.947Z,29.49
2022-08-25T11:01:28.846Z,30.22
2022-08-25T11:04:04.899Z,28.36
2022-08-25T11:06:53.062Z,29.22
2022-08-25T11:09:33.115Z,28.15
2022-08-25T11:12:08.665Z,28.05
2022-08-25T11:14:40.183Z,28.07
2022-08-25T11:17:23.979Z,26.84
2022-08-25T11:19:57.466Z,27.73
2022-08-25T11:22:45.944Z,26.21
2022-08-25T11:25:26.087Z,27.47
2022-08-25T11:28:03.083Z,26.22
2022-08-25T11:30:30.275Z,26.36
2022-08-25T11:32:57.764Z,28.63
2022-08-25T11:35:33.958Z,26.31
2022-08-25T11:38:12.446Z,27.48
2022-08-25T11:41:12.996Z,26.25
2022-08-25T11:43:54.651Z,26.10
2022-08-25T11:46:58.672Z,24.92
2022-08-25T11:49:37.451Z,26.32
2022-08-25T11:52:30.754Z,25.04
2022-08-25T11:55:14.805Z,26.24
2022-08-25T11:57:42.678Z,24.66
2022-08-25T12:00:36.989Z,24.46
2022-08-25T12:03:45.963Z,25.45
2022-08-25T12:06:29.432Z,24.73
2022-08-25T12:09:05.345Z,24.30
2022-08-25T12:11:37.685Z,24.96
2022-08-25T12:14:13.735Z,25.10
2022-08-25T12:17:04.668Z,25.64
2022-08-25T12:19:34.085Z,26.62
2022-08-25T12:22:04.086Z,27.30
2022-08-25T12:24:47.546Z,25.68
2022-08-25T12:27:28.139Z,26.17
2022-08-25T12:30:18.482Z,26.70
2022-08-25T12:33:17.612Z,25.16
2022-08-25T12:35:57.788Z,25.11
2022-08-25T12:38:43.574Z,26.06
2022-08-25T12:41:18.523Z,24.74
2022-08-25T12:43:48.016Z,24.56
2022-08-25T12:46:23.755Z,23.13
2022-08-25T12:49:01.515Z,24.14
2022-08-25T12:51:33.881Z,22.77
2022-08-25T12:54:22.444Z,23.86
2022-08-25T12:56:59.228Z,22.78
2022-08-25T12:59:37.430Z,22.86
2022-08-25T13:02:15.778Z,23.05
2022-08-25T13:05:01.554Z,24.42
2022-08-25T13:07:48.047Z,22.36
2022-08-25T13:10:42.511Z,22.21
2022-08-25T13:13:08.969Z,23.07
2022-08-25T13:15:41.764Z,21.82
2022-08-25T13:18:26.347Z,22.60
2022-08-25T13:21:13.528Z,22.72
2022-08-25T13:23:44.041Z,23.07
2022-08-25T13:26:15.354Z,22.43
2022-08-25T13:28:50.385Z,21.63
2022-08-25T13:31:28.142Z,22.47
2022-08-25T13:34:00.074Z,22.83
2022-08-25T13:36:54.297Z,22.41
2022-08-25T13:39:45.703Z,20.97
2022-08-25T13:42:17.487Z,21.29
2022-08-25T13:44:51.927Z,21.85
2022-08-25T13:47:43.786Z,21.90
2022-08-25T13:50:27.030Z,21.46
2022-08-25T13:53:21.493Z,21.91
2022-08-25T13:55:53.072Z,21.94
2022-08-25T13:58:39.487Z,20.65
2022-08-25T14:01:22.748Z,20.87
2022-08-25T14:04:39.525Z,22.40
2022-08-25T14:07:23.116Z,22.35
2022-08-25T14:09:52.344Z,23.67
2022-08-25T14:12:44.823Z,24.51
2022-08-25T14:15:17.642Z,24.34
2022-08-25T14:17:48.889Z,22.16
2022-08-25T14:20:28.695Z,21.58
2022-08-25T14:23:09.793Z,22.26
2022-08-25T14:25:36.848Z,21.14
2022-08-25T14:28:13.809Z,21.76
2022-08-25T14:30:46.090Z,21.39
2022-08-25T14:33:14.301Z,20.82
2022-08-25T14:35:43.555Z,22.38
2022-08-25T14:38:11.435Z,22.08
2022-08-25T14:40:39.362Z,22.79
2022-08-25T14:43:10.115Z,21.12
2022-08-25T14:45:40.088Z,24.14
2022-08-25T14:48:10.439Z,23.98
2022-08-25T14:50:37.381Z,23.16
2022-08-25T14:53:03.981Z,22.03
2022-08-25T14:55:32.193Z,21.54
2022-08-25T14:57:59.360Z,23.19
2022-08-25T15:00:26.399Z,22.07
2022-08-25T15:02:54.829Z,21.92
2022-08-25T15:05:26.878Z,21.47
2022-08-25T15:08:13.102Z,22.13
2022-08-25T15:10:40.275Z,22.66
2022-08-25T15:13:06.970Z,21.69
2022-08-25T15:15:38.036Z,21.84
2022-08-25T15:18:05.342Z,22.79
2022-08-25T15:20:32.646Z,23.79
2022-08-25T15:22:59.050Z,26.06
2022-08-25T15:25:25.528Z,25.28
2022-08-25T15:27:52.016Z,26.18
2022-08-25T15:30:18.523Z,27.26
2022-08-25T15:32:44.921Z,24.58
2022-08-25T15:35:15.198Z,26.62
2022-08-25T15:37:42.125Z,29.11
2022-08-25T15:40:09.112Z,29.38
2022-08-25T15:42:37.772Z,29.84
2022-08-25T15:45:10.354Z,30.28
2022-08-25T15:47:36.944Z,30.13
2022-08-25T15:50:14.527Z,31.77
2022-08-25T15:52:46.673Z,30.91
2022-08-25T15:55:14.916Z,31.97
2022-08-25T15:57:42.289Z,33.47
2022-08-25T16:00:13.699Z,33.50
2022-08-25T16:02:44.739Z,33.39
2022-08-25T16:05:12.068Z,32.82
2022-08-25T16:07:40.115Z,33.53
2022-08-25T16:10:07.044Z,34.06
2022-08-25T16:12:33.489Z,31.65
2022-08-25T16:14:59.908Z,31.39
2022-08-25T16:17:26.631Z,31.02
2022-08-25T16:19:52.974Z,31.18
2022-08-25T16:22:19.326Z,32.15
2022-08-25T16:24:45.730Z,33.21
2022-08-25T16:27:12.995Z,33.31
2022-08-25T16:29:44.081Z,34.49
2022-08-25T16:32:13.301Z,33.74
2022-08-25T16:34:40.788Z,34.22
2022-08-25T16:37:08.524Z,34.52
2022-08-25T16:39:35.651Z,33.03
2022-08-25T16:42:02.061Z,32.62
2022-08-25T16:44:28.486Z,33.18
2022-08-25T16:46:55.274Z,34.54
2022-08-25T16:49:24.246Z,35.28
2022-08-25T16:51:57.228Z,36.79
2022-08-25T16:54:42.630Z,38.02
2022-08-25T16:57:09.020Z,40.16
2022-08-25T16:59:35.680Z,39.82
2022-08-25T17:02:02.205Z,38.92
2022-08-25T17:04:32.003Z,38.92
2022-08-25T17:06:58.819Z,38.90
2022-08-25T17:09:25.176Z,37.25
2022-08-25T17:11:56.513Z,34.17
2022-08-25T17:14:23.043Z,33.65
2022-08-25T17:16:51.060Z,33.11
2022-08-25T17:19:17.757Z,33.24
2022-08-25T17:21:46.150Z,33.10
2022-08-25T17:24:13.707Z,33.46
2022-08-25T17:26:42.866Z,34.65
2022-08-25T17:29:11.497Z,35.95
2022-08-25T17:31:40.052Z,37.58
2022-08-25T17:34:10.552Z,38.15
2022-08-25T17:36:37.271Z,38.68
2022-08-25T17:39:04.485Z,39.29
2022-08-25T17:41:33.495Z,40.25
2022-08-25T17:44:04.672Z,40.92
2022-08-25T17:46:31.148Z,41.39
2022-08-25T17:48:57.648Z,42.42
2022-08-25T17:51:25.204Z,42.45
2022-08-25T17:53:52.720Z,42.97
2022-08-25T17:56:21.877Z,43.05
2022-08-25T17:58:49.883Z,43.24
2022-08-25T18:01:22.375Z,43.52
2022-08-25T18:03:49.735Z,44.14
2022-08-25T18:06:17.316Z,43.84
2022-08-25T18:08:44.993Z,44.07
2022-08-25T18:11:19.676Z,44.51
2022-08-25T18:13:46.686Z,44.95
2022-08-25T18:16:14.099Z,45.34
2022-08-25T18:18:41.348Z,45.91
2022-08-25T18:21:17.853Z,46.55
2022-08-25T18:23:45.711Z,46.93
2022-08-25T18:26:14.727Z,47.29
2022-08-25T18:28:43.925Z,47.29
2022-08-25T18:31:11.978Z,47.75
2022-08-25T18:33:41.882Z,47.66
2022-08-25T18:36:09.762Z,47.87
2022-08-25T18:38:58.254Z,48.27
2022-08-25T18:41:26.094Z,48.46
2022-08-25T18:43:53.004Z,48.83
2022-08-25T18:46:19.617Z,49.05
2022-08-25T18:48:49.435Z,49.40
2022-08-25T18:51:22.849Z,49.92
2022-08-25T18:53:51.044Z,50.31
2022-08-25T18:56:19.165Z,51.43
2022-08-25T18:58:46.732Z,51.64
2022-08-25T19:01:18.266Z,52.28
2022-08-25T19:03:45.720Z,52.54
2022-08-25T19:06:12.323Z,53.09
2022-08-25T19:08:41.935Z,53.81
2022-08-25T19:11:09.662Z,54.16
2022-08-25T19:13:36.268Z,55.26
2022-08-25T19:16:13.837Z,55.75
2022-08-25T19:18:45.236Z,56.77
2022-08-25T19:21:11.933Z,56.97
2022-08-25T19:23:39.044Z,57.76
2022-08-25T19:26:07.795Z,58.13
2022-08-25T19:28:40.323Z,58.44
2022-08-25T19:31:12.544Z,59.65
2022-08-25T19:33:44.579Z,59.64
2022-08-25T19:36:12.737Z,59.88
2022-08-25T19:38:39.299Z,60.82
2022-08-25T19:41:14.067Z,61.20
2022-08-25T19:43:55.735Z,61.67
2022-08-25T19:46:32.963Z,62.36
2022-08-25T19:49:06.334Z,62.73
2022-08-25T19:51:34.661Z,63.26
2022-08-25T19:54:02.916Z,63.96
2022-08-25T19:56:30.963Z,64.59
2022-08-25T19:58:57.351Z,64.63
2022-08-25T20:01:24.244Z,65.04
2022-08-25T20:03:52.067Z,65.21
2022-08-25T20:06:18.959Z,65.34
2022-08-25T20:08:45.364Z,65.67
2022-08-25T20:11:12.740Z,65.87
2022-08-25T20:13:39.404Z,66.07
2022-08-25T20:16:05.933Z,66.14
2022-08-25T20:18:32.485Z,65.78
2022-08-25T20:20:58.998Z,65.92
2022-08-25T20:23:43.993Z,65.92
2022-08-25T20:26:10.382Z,66.02
2022-08-25T20:28:37.005Z,66.41
2022-08-25T20:31:03.471Z,66.54
2022-08-25T20:33:29.911Z,66.50
2022-08-25T20:35:56.664Z,67.15
2022-08-25T20:38:24.735Z,67.43
2022-08-25T20:40:53.133Z,67.68
2022-08-25T20:43:20.691Z,68.28
2022-08-25T20:45:47.361Z,68.60
2022-08-25T20:48:13.761Z,69.15
2022-08-25T20:50:40.176Z,69.62
2022-08-25T20:53:10.250Z,69.97
2022-08-25T20:55:43.714Z,70.26
2022-08-25T20:58:10.434Z,70.67
2022-08-25T21:00:36.823Z,70.52
2022-08-25T21:03:03.262Z,70.89
2022-08-25T21:05:29.968Z,71.32
2022-08-25T21:07:56.394Z,71.27
2022-08-25T21:10:23.424Z,71.56
2022-08-25T21:12:53.556Z,71.34
2022-08-25T21:15:20.404Z,71.63
2022-08-25T21:17:53.079Z,72.09
2022-08-25T21:20:23.601Z,71.92
2022-08-25T21:22:50.372Z,72.32
2022-08-25T21:25:18.047Z,72.34
2022-08-25T21:27:44.849Z,72.95
2022-08-25T21:30:14.810Z,73.25
2022-08-25T21:32:53.498Z,73.19
2022-08-25T21:35:21.191Z,73.76
2022-08-25T21:37:48.944Z,73.16
2022-08-25T21:40:20.905Z,73.51
2022-08-25T21:42:47.293Z,73.63
2022-08-25T21:45:14.021Z,73.92
2022-08-25T21:47:42.366Z,73.87
2022-08-25T21:50:11.250Z,74.36
2022-08-25T21:52:37.711Z,74.63
2022-08-25T21:55:06.026Z,74.75
2022-08-25T21:57:32.677Z,74.61
2022-08-25T22:00:07.843Z,74.88
2022-08-25T22:02:35.519Z,75.10
2022-08-25T22:05:01.958Z,75.26
2022-08-25T22:07:29.050Z,75.17
2022-08-25T22:10:01.119Z,75.14
2022-08-25T22:12:27.569Z,75.65
2022-08-25T22:14:53.969Z,75.59
2022-08-25T22:17:24.237Z,75.39
2022-08-25T22:19:53.650Z,75.69
2022-08-25T22:22:20.964Z,75.64
2022-08-25T22:24:47.574Z,75.60
2022-08-25T22:27:15.801Z,75.42
2022-08-25T22:29:43.763Z,75.51
2022-08-25T22:32:10.656Z,75.55
2022-08-25T22:34:40.324Z,75.88
2022-08-25T22:37:06.743Z,75.80
2022-08-25T22:39:34.847Z,75.97
2022-08-25T22:42:02.063Z,76.22
2022-08-25T22:44:28.530Z,76.06
2022-08-25T22:46:54.965Z,75.85
2022-08-25T22:49:21.658Z,75.94
2022-08-25T22:51:48.154Z,76.17
2022-08-25T22:54:15.612Z,75.99
2022-08-25T22:56:42.227Z,75.92
2022-08-25T22:59:11.677Z,75.92
2022-08-25T23:01:38.692Z,76.56
2022-08-25T23:04:06.654Z,76.07
2022-08-25T23:06:34.397Z,76.14
2022-08-25T23:09:05.832Z,76.01
2022-08-25T23:11:32.381Z,76.07
2022-08-25T23:14:05.365Z,76.21
2022-08-25T23:16:32.842Z,76.01
2022-08-25T23:18:59.707Z,76.26
2022-08-25T23:21:45.339Z,76.20
2022-08-25T23:24:13.271Z,76.32
2022-08-25T23:26:42.571Z,76.16
2022-08-25T23:29:17.790Z,76.24
2022-08-25T23:31:45.835Z,76.20
2022-08-25T23:34:14.065Z,76.41
2022-08-25T23:36:40.514Z,76.36
2022-08-25T23:39:07.897Z,76.28
2022-08-25T23:41:36.856Z,75.94
2022-08-25T23:44:05.257Z,75.99
2022-08-25T23:46:32.180Z,76.10
2022-08-25T23:48:58.549Z,76.05
2022-08-25T23:51:29.788Z,76.31
2022-08-25T23:53:57.296Z,76.20
2022-08-25T23:56:25.809Z,76.18
2022-08-25T23:58:52.239Z,76.40
